createdAt,value
2023-04-20T00:00:17.691Z,8.10
2023-04-20T00:02:45.943Z,8.20
2023-04-20T00:05:12.925Z,8.20
2023-04-20T00:07:41.500Z,8.10
2023-04-20T00:10:08.894Z,8.10
2023-04-20T00:12:35.640Z,8.00
2023-04-20T00:15:02.365Z,8.10
2023-04-20T00:17:31.734Z,8.00
2023-04-20T00:20:05.479Z,8.00
2023-04-20T00:22:32.209Z,8.10
2023-04-20T00:25:01.285Z,8.10
2023-04-20T00:27:28.247Z,8.00
2023-04-20T00:29:57.743Z,8.10
2023-04-20T00:32:28.438Z,8.10
2023-04-20T00:34:55.348Z,8.10
2023-04-20T00:37:25.588Z,8.00
2023-04-20T00:39:55.569Z,8.00
2023-04-20T00:42:22.378Z,8.00
2023-04-20T00:44:51.579Z,8.10
2023-04-20T00:47:18.346Z,8.10
2023-04-20T00:49:45.204Z,8.20
2023-04-20T00:52:14.452Z,8.10
2023-04-20T00:54:43.755Z,8.10
2023-04-20T00:57:13.884Z,8.10
2023-04-20T00:59:41.116Z,8.10
2023-04-20T01:02:08.178Z,8.10
2023-04-20T01:04:37.902Z,8.00
2023-04-20T01:07:07.134Z,8.00
2023-04-20T01:09:33.877Z,8.00
2023-04-20T01:12:01.650Z,7.90
2023-04-20T01:14:32.870Z,7.90
2023-04-20T01:16:59.558Z,7.80
2023-04-20T01:19:26.736Z,7.80
2023-04-20T01:21:56.321Z,7.80
2023-04-20T01:24:23.054Z,7.70
2023-04-20T01:26:51.344Z,7.70
2023-04-20T01:29:18.261Z,7.70
2023-04-20T01:31:45.153Z,7.70
2023-04-20T01:34:11.996Z,7.60
2023-04-20T01:36:39.036Z,7.60
2023-04-20T01:39:07.266Z,7.60
2023-04-20T01:41:34.053Z,7.50
2023-04-20T01:44:00.800Z,7.50
2023-04-20T01:46:27.575Z,7.50
2023-04-20T01:48:56.773Z,7.50
2023-04-20T01:51:23.549Z,7.50
2023-04-20T01:53:50.247Z,7.50
2023-04-20T01:56:19.122Z,7.50
2023-04-20T01:58:45.836Z,7.50
2023-04-20T02:01:18.548Z,7.60
2023-04-20T02:03:49.481Z,7.60
2023-04-20T02:06:16.504Z,7.50
2023-04-20T02:08:43.221Z,7.60
2023-04-20T02:11:16.928Z,7.60
2023-04-20T02:13:43.655Z,7.60
2023-04-20T02:16:10.797Z,7.60
2023-04-20T02:18:39.982Z,7.60
2023-04-20T02:25:33.333Z,7.50
2023-04-20T02:28:00.222Z,7.50
2023-04-20T02:30:27.118Z,7.60
2023-04-20T02:32:54.086Z,7.60
2023-04-20T02:35:23.319Z,7.60
2023-04-20T02:37:50.049Z,7.60
2023-04-20T02:40:18.934Z,7.70
2023-04-20T02:42:45.831Z,7.70
2023-04-20T02:45:12.618Z,7.70
2023-04-20T02:47:43.766Z,7.70
2023-04-20T02:50:14.785Z,7.70
2023-04-20T02:53:01.764Z,7.70
2023-04-20T02:55:30.680Z,7.80
2023-04-20T02:58:01.589Z,7.80
2023-04-20T03:00:48.276Z,7.80
2023-04-20T03:03:15.588Z,7.70
2023-04-20T03:05:47.316Z,7.60
2023-04-20T03:08:14.125Z,7.60
2023-04-20T03:10:44.045Z,7.70
2023-04-20T03:13:16.204Z,7.70
2023-04-20T03:15:57.554Z,7.70
2023-04-20T03:18:29.800Z,7.70
2023-04-20T03:20:56.733Z,7.80
2023-04-20T03:23:23.488Z,7.80
2023-04-20T03:25:51.051Z,7.80
2023-04-20T03:28:36.428Z,7.70
2023-04-20T03:31:03.558Z,7.70
2023-04-20T03:33:33.161Z,7.70
2023-04-20T03:36:01.075Z,7.70
2023-04-20T03:38:30.359Z,7.80
2023-04-20T03:40:57.132Z,7.80
2023-04-20T03:43:23.953Z,7.70
2023-04-20T03:45:50.936Z,7.70
2023-04-20T03:48:18.880Z,7.70
2023-04-20T03:50:47.899Z,7.70
2023-04-20T03:53:17.025Z,7.80
2023-04-20T03:55:43.974Z,7.80
2023-04-20T03:58:14.385Z,7.80
2023-04-20T04:00:51.141Z,7.80
2023-04-20T04:03:18.192Z,7.80
2023-04-20T04:05:47.541Z,7.90
2023-04-20T04:08:14.393Z,7.90
2023-04-20T04:10:41.177Z,7.90
2023-04-20T04:13:07.926Z,7.90
2023-04-20T04:15:37.076Z,7.90
2023-04-20T04:18:10.408Z,7.90
2023-04-20T04:20:39.214Z,7.90
2023-04-20T04:23:06.725Z,7.90
2023-04-20T04:25:41.475Z,7.90
2023-04-20T04:28:14.710Z,7.90
2023-04-20T04:30:49.629Z,7.90
2023-04-20T04:33:20.154Z,7.80
2023-04-20T04:35:49.511Z,7.90
2023-04-20T04:38:16.861Z,7.90
2023-04-20T04:40:47.706Z,7.90
2023-04-20T04:43:19.545Z,7.90
2023-04-20T04:45:55.587Z,7.80
2023-04-20T04:48:23.116Z,7.80
2023-04-20T04:50:52.214Z,7.80
2023-04-20T04:53:21.425Z,7.80
2023-04-20T04:55:50.755Z,7.90
2023-04-20T04:58:17.521Z,8.00
2023-04-20T05:00:44.242Z,8.00
2023-04-20T05:03:13.685Z,7.90
2023-04-20T05:05:41.172Z,7.90
2023-04-20T05:08:12.718Z,7.90
2023-04-20T05:10:42.023Z,8.00
2023-04-20T05:13:10.979Z,8.00
2023-04-20T05:15:37.729Z,8.00
2023-04-20T05:18:04.606Z,8.00
2023-04-20T05:20:33.821Z,8.00
2023-04-20T05:23:00.670Z,8.00
2023-04-20T05:25:32.684Z,8.00
2023-04-20T05:27:59.610Z,8.00
2023-04-20T05:30:26.431Z,8.00
2023-04-20T05:32:55.428Z,8.10
2023-04-20T05:35:22.336Z,8.10
2023-04-20T05:37:49.348Z,8.20
2023-04-20T05:40:20.888Z,8.20
2023-04-20T05:42:47.920Z,8.20
2023-04-20T05:45:14.675Z,8.30
2023-04-20T05:47:43.994Z,8.30
2023-04-20T05:50:13.182Z,8.30
2023-04-20T05:52:40.076Z,8.40
2023-04-20T05:55:10.302Z,8.40
2023-04-20T05:57:42.861Z,8.40
2023-04-20T06:00:12.734Z,8.40
2023-04-20T06:02:42.035Z,8.40
2023-04-20T06:05:10.364Z,8.40
2023-04-20T06:07:37.727Z,8.50
2023-04-20T06:10:05.008Z,8.60
2023-04-20T06:12:31.791Z,8.50
2023-04-20T06:14:58.988Z,8.40
2023-04-20T06:17:26.031Z,8.40
2023-04-20T06:19:53.043Z,8.40
2023-04-20T06:22:19.918Z,8.50
2023-04-20T06:24:49.108Z,8.50
2023-04-20T06:27:16.078Z,8.50
2023-04-20T06:29:42.881Z,8.50
2023-04-20T06:32:09.807Z,8.50
2023-04-20T06:34:38.903Z,8.50
2023-04-20T06:37:06.210Z,8.60
2023-04-20T06:39:35.602Z,8.60
2023-04-20T06:42:04.769Z,8.60
2023-04-20T06:44:32.198Z,8.60
2023-04-20T06:46:59.024Z,8.70
2023-04-20T06:49:25.945Z,8.80
2023-04-20T06:51:52.850Z,8.80
2023-04-20T06:54:21.863Z,8.90
2023-04-20T06:56:53.886Z,9.00
2023-04-20T06:59:20.946Z,9.00
2023-04-20T07:01:50.039Z,9.00
2023-04-20T07:04:16.974Z,9.00
2023-04-20T07:06:46.121Z,8.90
2023-04-20T07:09:13.023Z,8.90
2023-04-20T07:11:44.111Z,9.10
2023-04-20T07:14:13.219Z,9.20
2023-04-20T07:16:40.079Z,9.30
2023-04-20T07:19:07.201Z,9.40
2023-04-20T07:21:36.159Z,9.50
2023-04-20T07:24:03.016Z,9.60
2023-04-20T07:26:29.936Z,9.60
2023-04-20T07:28:59.034Z,9.60
2023-04-20T07:31:31.514Z,9.40
2023-04-20T07:33:59.185Z,9.40
2023-04-20T07:36:28.252Z,9.50
2023-04-20T07:38:55.102Z,9.60
2023-04-20T07:41:23.107Z,9.70
2023-04-20T07:43:50.386Z,9.80
2023-04-20T07:46:23.824Z,9.90
2023-04-20T07:48:50.790Z,9.90
2023-04-20T07:51:17.687Z,9.90
2023-04-20T07:53:44.867Z,9.80
2023-04-20T07:56:14.139Z,9.90
2023-04-20T07:58:45.270Z,9.90
2023-04-20T08:01:14.479Z,9.80
2023-04-20T08:03:44.565Z,9.90
2023-04-20T08:06:13.601Z,9.90
2023-04-20T08:08:42.742Z,9.90
2023-04-20T08:11:13.988Z,10.00
2023-04-20T08:13:41.276Z,10.10
2023-04-20T08:16:08.111Z,10.10
2023-04-20T08:18:35.220Z,10.20
2023-04-20T08:21:04.349Z,10.30
2023-04-20T08:23:33.546Z,10.80
2023-04-20T08:26:04.489Z,11.70
2023-04-20T08:28:34.276Z,12.00
2023-04-20T08:31:01.570Z,12.50
2023-04-20T08:33:28.693Z,13.00
2023-04-20T08:35:55.760Z,13.60
2023-04-20T08:38:33.780Z,12.90
2023-04-20T08:41:01.215Z,12.40
2023-04-20T08:43:31.302Z,11.80
2023-04-20T08:46:00.039Z,11.60
2023-04-20T08:48:31.823Z,11.20
2023-04-20T08:51:01.104Z,10.90
2023-04-20T08:53:28.030Z,10.60
2023-04-20T08:55:56.807Z,10.60
2023-04-20T08:58:32.142Z,10.40
2023-04-20T09:01:01.604Z,10.30
2023-04-20T09:03:36.004Z,10.20
2023-04-20T09:06:04.335Z,10.10
2023-04-20T09:08:39.365Z,10.00
2023-04-20T09:11:09.462Z,10.10
2023-04-20T09:13:36.489Z,10.10
2023-04-20T09:16:11.246Z,10.10
2023-04-20T09:18:40.955Z,10.10
2023-04-20T09:21:09.306Z,10.10
2023-04-20T09:23:36.512Z,10.00
2023-04-20T09:26:04.441Z,10.00
2023-04-20T09:28:41.638Z,9.90
2023-04-20T09:31:19.086Z,9.90
2023-04-20T09:33:55.269Z,10.00
2023-04-20T09:36:22.252Z,10.00
2023-04-20T09:39:01.104Z,10.10
2023-04-20T09:41:28.289Z,10.20
2023-04-20T09:43:58.690Z,10.20
2023-04-20T09:46:28.668Z,10.30
2023-04-20T09:48:56.123Z,10.40
2023-04-20T09:51:27.777Z,10.40
2023-04-20T09:53:56.584Z,10.50
2023-04-20T09:56:26.641Z,10.80
2023-04-20T09:58:54.819Z,10.90
2023-04-20T10:01:24.913Z,11.10
2023-04-20T10:03:56.683Z,11.40
2023-04-20T10:06:28.955Z,11.90
2023-04-20T10:08:58.184Z,12.20
2023-04-20T10:11:40.595Z,12.20
2023-04-20T10:14:26.206Z,12.40
2023-04-20T10:17:06.981Z,12.70
2023-04-20T10:19:39.298Z,12.70
2023-04-20T10:22:10.385Z,13.10
2023-04-20T10:24:40.234Z,13.40
2023-04-20T10:27:18.429Z,13.40
2023-04-20T10:29:48.051Z,13.20
2023-04-20T10:32:30.377Z,13.20
2023-04-20T10:35:06.355Z,13.10
2023-04-20T10:37:33.622Z,12.90
2023-04-20T10:40:07.375Z,13.10
2023-04-20T10:42:44.761Z,13.40
2023-04-20T10:45:12.674Z,13.30
2023-04-20T10:47:41.204Z,13.50
2023-04-20T10:50:15.432Z,13.80
2023-04-20T10:52:44.591Z,13.60
2023-04-20T10:55:25.464Z,13.70
2023-04-20T10:57:53.122Z,14.20
2023-04-20T11:00:25.342Z,14.40
2023-04-20T11:02:59.993Z,14.30
2023-04-20T11:05:29.331Z,14.20
2023-04-20T11:08:01.201Z,14.10
2023-04-20T11:10:39.786Z,13.80
2023-04-20T11:13:07.397Z,13.80
2023-04-20T11:15:37.289Z,13.80
2023-04-20T11:18:12.070Z,13.80
2023-04-20T11:20:58.509Z,13.60
2023-04-20T11:23:27.436Z,13.60
2023-04-20T11:25:56.423Z,13.60
2023-04-20T11:28:23.889Z,13.50
2023-04-20T11:30:51.128Z,13.00
2023-04-20T11:33:28.965Z,12.90
2023-04-20T11:35:57.570Z,12.70
2023-04-20T11:38:31.901Z,12.50
2023-04-20T11:41:07.782Z,12.40
2023-04-20T11:43:37.390Z,12.40
2023-04-20T11:46:14.597Z,12.40
2023-04-20T11:48:41.704Z,12.40
2023-04-20T11:51:08.855Z,12.50
2023-04-20T11:53:38.631Z,12.60
2023-04-20T11:56:12.485Z,12.90
2023-04-20T11:58:39.410Z,13.00
2023-04-20T12:01:06.756Z,13.10
2023-04-20T12:03:33.852Z,13.20
2023-04-20T12:06:01.046Z,13.90
2023-04-20T12:08:30.073Z,14.10
2023-04-20T12:10:59.494Z,14.00
2023-04-20T12:13:26.423Z,13.90
2023-04-20T12:16:02.546Z,14.00
2023-04-20T12:18:29.437Z,15.10
2023-04-20T12:20:56.401Z,15.10
2023-04-20T12:23:23.294Z,15.00
2023-04-20T12:25:50.156Z,15.10
2023-04-20T12:28:17.058Z,15.30
2023-04-20T12:30:44.010Z,15.10
2023-04-20T12:33:11.191Z,15.30
2023-04-20T12:35:40.413Z,15.50
2023-04-20T12:38:07.458Z,15.40
2023-04-20T12:40:35.372Z,15.40
2023-04-20T12:43:02.261Z,15.60
2023-04-20T12:45:29.664Z,16.10
2023-04-20T12:48:00.624Z,16.50
2023-04-20T12:50:27.951Z,16.60
2023-04-20T12:52:56.152Z,17.00
2023-04-20T12:55:23.550Z,17.00
2023-04-20T12:57:50.773Z,16.90
2023-04-20T13:00:18.017Z,16.70
2023-04-20T13:02:45.112Z,16.40
2023-04-20T13:05:14.613Z,16.20
2023-04-20T13:07:41.769Z,16.00
2023-04-20T13:10:09.194Z,15.80
2023-04-20T13:12:36.151Z,15.70
2023-04-20T13:15:08.542Z,15.60
2023-04-20T13:17:36.212Z,15.80
2023-04-20T13:20:04.730Z,15.70
2023-04-20T13:22:31.787Z,15.60
2023-04-20T13:24:58.638Z,15.60
2023-04-20T13:27:27.569Z,16.30
2023-04-20T13:29:56.681Z,16.80
2023-04-20T13:32:23.658Z,17.30
2023-04-20T13:34:50.647Z,17.30
2023-04-20T13:37:17.743Z,17.60
2023-04-20T13:39:44.684Z,17.80
2023-04-20T13:42:11.554Z,18.30
2023-04-20T13:44:38.437Z,17.90
2023-04-20T13:47:05.399Z,17.50
2023-04-20T13:49:32.323Z,17.50
2023-04-20T13:51:59.233Z,18.00
2023-04-20T13:54:28.396Z,18.20
2023-04-20T13:56:55.247Z,18.60
2023-04-20T13:59:26.754Z,18.20
2023-04-20T14:01:53.666Z,18.40
2023-04-20T14:04:20.816Z,17.80
2023-04-20T14:06:47.971Z,18.00
2023-04-20T14:09:14.893Z,18.10
2023-04-20T14:11:44.140Z,18.70
2023-04-20T14:14:13.349Z,19.20
2023-04-20T14:16:47.536Z,21.90
2023-04-20T14:19:15.171Z,22.20
2023-04-20T14:21:44.370Z,21.00
2023-04-20T14:24:14.542Z,19.70
2023-04-20T14:26:43.820Z,18.90
2023-04-20T14:29:10.903Z,18.50
2023-04-20T14:31:38.324Z,18.00
2023-04-20T14:34:09.317Z,17.70
2023-04-20T14:36:36.246Z,17.30
2023-04-20T14:39:03.503Z,16.90
2023-04-20T14:41:34.311Z,16.70
2023-04-20T14:44:05.924Z,16.50
2023-04-20T14:46:32.841Z,16.80
2023-04-20T14:48:59.759Z,16.80
2023-04-20T14:51:28.894Z,17.10
2023-04-20T14:53:55.842Z,17.20
2023-04-20T14:56:23.423Z,17.10
2023-04-20T14:58:50.435Z,17.10
2023-04-20T15:01:17.490Z,17.40
2023-04-20T15:03:49.111Z,17.40
2023-04-20T15:06:20.899Z,17.40
2023-04-20T15:08:47.813Z,20.30
2023-04-20T15:11:14.739Z,21.60
2023-04-20T15:13:43.936Z,20.10
2023-04-20T15:16:10.983Z,20.10
2023-04-20T15:18:38.065Z,20.20
2023-04-20T15:21:05.588Z,19.70
2023-04-20T15:23:34.624Z,18.70
2023-04-20T15:26:03.625Z,17.90
2023-04-20T15:28:33.010Z,17.40
2023-04-20T15:31:05.801Z,17.10
2023-04-20T15:33:32.868Z,16.90
2023-04-20T15:35:59.753Z,16.80
2023-04-20T15:38:26.776Z,16.60
2023-04-20T15:40:56.373Z,16.40
2023-04-20T15:43:23.546Z,16.30
2023-04-20T15:45:50.497Z,16.30
2023-04-20T15:48:17.933Z,16.20
2023-04-20T15:50:51.926Z,16.20
2023-04-20T15:53:24.230Z,16.20
2023-04-20T15:55:52.314Z,16.20
2023-04-20T15:58:19.294Z,16.20
2023-04-20T16:00:46.309Z,16.20
2023-04-20T16:03:13.416Z,16.30
2023-04-20T16:05:40.495Z,16.30
2023-04-20T16:08:14.131Z,16.30
2023-04-20T16:10:41.270Z,16.30
2023-04-20T16:13:08.193Z,16.20
2023-04-20T16:15:35.144Z,16.10
2023-04-20T16:18:05.429Z,16.00
2023-04-20T16:20:34.556Z,16.00
2023-04-20T16:23:01.409Z,16.00
2023-04-20T16:25:28.439Z,16.00
2023-04-20T16:27:55.762Z,15.90
2023-04-20T16:30:23.029Z,15.80
2023-04-20T16:32:50.144Z,15.80
2023-04-20T16:35:19.650Z,15.80
2023-04-20T16:37:51.237Z,15.60
2023-04-20T16:40:26.169Z,15.60
2023-04-20T16:42:55.660Z,15.50
2023-04-20T16:45:22.647Z,15.40
2023-04-20T16:47:52.245Z,15.40
2023-04-20T16:50:21.804Z,15.40
2023-04-20T16:52:48.867Z,15.40
2023-04-20T16:55:18.075Z,15.50
2023-04-20T16:57:47.196Z,15.50
2023-04-20T17:00:14.725Z,15.50
2023-04-20T17:02:41.836Z,15.50
2023-04-20T17:05:09.168Z,15.40
2023-04-20T17:07:36.991Z,15.40
2023-04-20T17:10:05.891Z,15.50
2023-04-20T17:12:32.786Z,15.40
2023-04-20T17:15:00.786Z,15.40
2023-04-20T17:17:28.301Z,15.40
2023-04-20T17:19:55.527Z,15.40
2023-04-20T17:22:22.543Z,15.30
2023-04-20T17:24:49.580Z,15.30
2023-04-20T17:27:16.559Z,15.20
2023-04-20T17:29:44.892Z,15.20
2023-04-20T17:32:14.787Z,15.10
2023-04-20T17:34:44.891Z,15.00
2023-04-20T17:37:12.045Z,15.00
2023-04-20T17:39:41.300Z,15.00
2023-04-20T17:42:08.178Z,14.90
2023-04-20T17:44:35.081Z,14.90
2023-04-20T17:47:01.947Z,14.80
2023-04-20T17:49:32.522Z,14.80
2023-04-20T17:51:59.422Z,14.80
2023-04-20T17:54:28.817Z,14.70
2023-04-20T17:56:57.845Z,14.70
2023-04-20T17:59:24.764Z,14.60
2023-04-20T18:01:51.676Z,14.60
2023-04-20T18:04:19.096Z,14.50
2023-04-20T18:06:46.668Z,14.50
2023-04-20T18:09:14.231Z,14.40
2023-04-20T18:11:41.833Z,14.40
2023-04-20T18:14:10.921Z,14.40
2023-04-20T18:16:39.931Z,14.40
2023-04-20T18:19:09.312Z,14.30
2023-04-20T18:21:38.209Z,14.30
2023-04-20T18:24:07.528Z,14.30
2023-04-20T18:26:34.440Z,14.30
2023-04-20T18:29:04.253Z,14.30
2023-04-20T18:31:31.387Z,14.30
2023-04-20T18:34:00.762Z,14.30
2023-04-20T18:36:32.261Z,14.20
2023-04-20T18:39:01.347Z,14.20
2023-04-20T18:41:29.709Z,14.20
2023-04-20T18:43:59.305Z,14.10
2023-04-20T18:46:30.775Z,14.10
2023-04-20T18:48:57.980Z,14.00
2023-04-20T18:51:25.066Z,14.00
2023-04-20T18:53:54.340Z,14.00
2023-04-20T18:56:21.287Z,13.90
2023-04-20T18:58:50.722Z,13.90
2023-04-20T19:01:17.714Z,13.90
2023-04-20T19:03:48.179Z,13.90
2023-04-20T19:06:15.366Z,13.80
2023-04-20T19:08:44.480Z,13.80
2023-04-20T19:11:11.470Z,13.80
2023-04-20T19:13:44.265Z,13.70
2023-04-20T19:16:14.683Z,13.70
2023-04-20T19:18:43.475Z,13.70
2023-04-20T19:21:10.696Z,13.70
2023-04-20T19:23:40.152Z,13.70
2023-04-20T19:26:09.564Z,13.60
2023-04-20T19:28:38.819Z,13.60
2023-04-20T19:31:08.338Z,13.60
2023-04-20T19:33:38.694Z,13.60
2023-04-20T19:36:06.583Z,13.60
2023-04-20T19:38:34.784Z,13.60
2023-04-20T19:41:06.062Z,13.50
2023-04-20T19:43:33.194Z,13.50
2023-04-20T19:46:00.427Z,13.50
2023-04-20T19:48:29.663Z,13.50
2023-04-20T19:51:01.033Z,13.50
2023-04-20T19:53:32.958Z,13.40
2023-04-20T19:56:00.102Z,13.40
2023-04-20T19:58:27.071Z,13.40
2023-04-20T20:00:54.142Z,13.40
2023-04-20T20:03:23.901Z,13.30
2023-04-20T20:05:51.072Z,13.30
2023-04-20T20:08:18.108Z,13.30
2023-04-20T20:10:45.043Z,13.30
2023-04-20T20:13:11.968Z,13.30
2023-04-20T20:15:39.185Z,13.30
2023-04-20T20:18:06.727Z,13.30
2023-04-20T20:20:33.707Z,13.30
2023-04-20T20:23:00.670Z,13.20
2023-04-20T20:25:27.569Z,13.20
2023-04-20T20:27:54.712Z,13.20
2023-04-20T20:30:24.882Z,13.20
2023-04-20T20:32:51.827Z,13.20
2023-04-20T20:35:18.786Z,13.20
2023-04-20T20:37:45.646Z,13.20
2023-04-20T20:40:15.346Z,13.10
2023-04-20T20:42:44.930Z,13.10
2023-04-20T20:45:12.894Z,13.10
2023-04-20T20:47:44.165Z,13.10
2023-04-20T20:50:12.456Z,13.10
2023-04-20T20:52:39.307Z,13.10
2023-04-20T20:55:10.344Z,13.10
2023-04-20T20:57:37.175Z,13.10
2023-04-20T21:00:08.248Z,13.00
2023-04-20T21:02:35.814Z,13.00
2023-04-20T21:05:03.379Z,13.00
2023-04-20T21:07:30.381Z,13.00
2023-04-20T21:09:59.386Z,13.00
2023-04-20T21:12:26.494Z,13.00
2023-04-20T21:14:53.409Z,12.90
2023-04-20T21:17:20.545Z,13.00
2023-04-20T21:19:49.819Z,12.90
2023-04-20T21:22:16.846Z,12.90
2023-04-20T21:24:43.675Z,12.90
2023-04-20T21:27:12.820Z,12.90
2023-04-20T21:29:39.718Z,12.90
2023-04-20T21:32:09.957Z,12.90
2023-04-20T21:34:37.009Z,12.90
2023-04-20T21:37:06.336Z,12.90
2023-04-20T21:39:33.435Z,12.90
2023-04-20T21:42:01.487Z,12.80
2023-04-20T21:44:28.509Z,12.80
2023-04-20T21:46:55.573Z,12.80
2023-04-20T21:49:22.508Z,12.80
2023-04-20T21:51:49.657Z,12.80
2023-04-20T21:54:16.541Z,12.80
2023-04-20T21:56:43.455Z,12.70
2023-04-20T21:59:10.416Z,12.70
2023-04-20T22:01:37.392Z,12.70
2023-04-20T22:04:07.324Z,12.70
2023-04-20T22:06:34.407Z,12.70
2023-04-20T22:09:01.789Z,12.60
2023-04-20T22:11:31.338Z,12.60
2023-04-20T22:14:00.558Z,12.60
2023-04-20T22:16:29.994Z,12.60
2023-04-20T22:19:01.925Z,12.60
2023-04-20T22:21:28.855Z,12.60
2023-04-20T22:23:58.029Z,12.50
2023-04-20T22:26:25.215Z,12.60
2023-04-20T22:28:54.488Z,12.50
2023-04-20T22:31:23.767Z,12.50
2023-04-20T22:33:50.668Z,12.50
2023-04-20T22:36:18.426Z,12.50
2023-04-20T22:38:45.487Z,12.50
2023-04-20T22:41:12.378Z,12.50
2023-04-20T22:43:41.520Z,12.50
2023-04-20T22:46:08.359Z,12.50
2023-04-20T22:48:35.256Z,12.50
2023-04-20T22:51:04.638Z,12.50
2023-04-20T22:53:33.963Z,12.50
2023-04-20T22:56:05.882Z,12.50
2023-04-20T22:58:33.135Z,12.40
2023-04-20T23:01:00.542Z,12.40
2023-04-20T23:03:31.053Z,12.40
2023-04-20T23:05:59.094Z,12.40
2023-04-20T23:08:26.269Z,12.40
2023-04-20T23:10:55.859Z,12.40
2023-04-20T23:13:26.330Z,12.40
2023-04-20T23:15:53.550Z,12.40
2023-04-20T23:18:20.560Z,12.40
2023-04-20T23:20:47.411Z,12.40
2023-04-20T23:23:16.429Z,12.40
2023-04-20T23:25:43.295Z,12.40
2023-04-20T23:28:10.240Z,12.40
2023-04-20T23:30:37.123Z,12.40
2023-04-20T23:33:04.120Z,12.40
2023-04-20T23:35:31.018Z,12.40
2023-04-20T23:37:58.097Z,12.40
2023-04-20T23:40:27.420Z,12.40
2023-04-20T23:42:55.202Z,12.40
2023-04-20T23:45:22.805Z,12.40
2023-04-20T23:47:49.797Z,12.40
2023-04-20T23:50:16.763Z,12.40
2023-04-20T23:52:47.965Z,12.40
2023-04-20T23:55:14.773Z,12.40
2023-04-20T23:57:41.674Z,12.40
